sensor_id;sensor_type;location;lat;lon;timestamp;pressure;altitude;pressure_sealevel;temperature;humidity
54588;BME280;40484;50.198;19.576;2022-12-28T13:07:33;101994.88;;;9.33;41.71
54588;BME280;40484;50.198;19.576;2022-12-28T13:12:35;101984.22;;;9.13;41.66
54588;BME280;40484;50.198;19.576;2022-12-28T13:17:37;101978.20;;;9.12;41.85
54588;BME280;40484;50.198;19.576;2022-12-28T13:22:43;101980.96;;;9.15;42.14
54588;BME280;40484;50.198;19.576;2022-12-28T13:27:45;101972.09;;;8.92;42.43
54588;BME280;40484;50.198;19.576;2022-12-28T13:32:54;101943.38;;;9.32;42.42
54588;BME280;40484;50.198;19.576;2022-12-28T13:38:03;101942.34;;;9.22;42.61
54588;BME280;40484;50.198;19.576;2022-12-28T13:43:30;101935.48;;;9.13;42.99
54588;BME280;40484;50.198;19.576;2022-12-28T13:48:51;101930.55;;;9.23;42.85
54588;BME280;40484;50.198;19.576;2022-12-28T13:53:56;101930.86;;;9.20;42.92
54588;BME280;40484;50.198;19.576;2022-12-28T13:58:59;101933.68;;;9.24;42.46
54588;BME280;40484;50.198;19.576;2022-12-28T14:04:04;101937.18;;;8.96;42.91
54588;BME280;40484;50.198;19.576;2022-12-28T14:09:04;101933.95;;;9.17;42.72
54588;BME280;40484;50.198;19.576;2022-12-28T14:14:06;101924.88;;;9.11;42.66
54588;BME280;40484;50.198;19.576;2022-12-28T14:19:08;101926.34;;;8.95;42.95
54588;BME280;40484;50.198;19.576;2022-12-28T14:24:12;101928.13;;;8.99;42.71
54588;BME280;40484;50.198;19.576;2022-12-28T14:29:23;101931.96;;;8.78;42.95
54588;BME280;40484;50.198;19.576;2022-12-28T14:34:28;101954.73;;;8.52;43.66
54588;BME280;40484;50.198;19.576;2022-12-28T14:39:34;101952.33;;;8.48;43.71
54588;BME280;40484;50.198;19.576;2022-12-28T14:44:38;101949.51;;;8.75;43.28
54588;BME280;40484;50.198;19.576;2022-12-28T14:49:40;101933.98;;;8.85;43.09
54588;BME280;40484;50.198;19.576;2022-12-28T14:54:48;101926.86;;;8.89;43.12
54588;BME280;40484;50.198;19.576;2022-12-28T14:59:50;101920.40;;;8.64;43.40
54588;BME280;40484;50.198;19.576;2022-12-28T15:05:32;101915.36;;;8.69;43.37
54588;BME280;40484;50.198;19.576;2022-12-28T15:10:37;101915.15;;;8.14;44.26
54588;BME280;40484;50.198;19.576;2022-12-28T15:15:37;101921.75;;;8.29;43.96
54588;BME280;40484;50.198;19.576;2022-12-28T15:20:39;101912.16;;;8.03;44.18
54588;BME280;40484;50.198;19.576;2022-12-28T15:25:41;101910.95;;;7.90;44.53
54588;BME280;40484;50.198;19.576;2022-12-28T15:30:42;101911.75;;;7.80;44.70
54588;BME280;40484;50.198;19.576;2022-12-28T15:35:44;101903.63;;;7.94;44.28
54588;BME280;40484;50.198;19.576;2022-12-28T15:40:45;101899.41;;;7.91;44.54
54588;BME280;40484;50.198;19.576;2022-12-28T15:45:57;101887.85;;;8.15;44.01
54588;BME280;40484;50.198;19.576;2022-12-28T15:50:59;101876.10;;;7.94;44.37
54588;BME280;40484;50.198;19.576;2022-12-28T15:56:01;101878.59;;;7.80;44.49
54588;BME280;40484;50.198;19.576;2022-12-28T16:01:03;101870.94;;;7.79;44.68
54588;BME280;40484;50.198;19.576;2022-12-28T16:06:05;101863.79;;;7.83;44.70
54588;BME280;40484;50.198;19.576;2022-12-28T16:11:17;101865.10;;;7.78;45.07
54588;BME280;40484;50.198;19.576;2022-12-28T16:16:16;101855.80;;;7.42;45.81
54588;BME280;40484;50.198;19.576;2022-12-28T16:21:18;101856.73;;;7.82;45.00
54588;BME280;40484;50.198;19.576;2022-12-28T16:26:45;101855.30;;;7.90;44.86
54588;BME280;40484;50.198;19.576;2022-12-28T16:31:47;101855.99;;;7.77;44.98
54588;BME280;40484;50.198;19.576;2022-12-28T16:36:48;101855.59;;;7.71;45.12
54588;BME280;40484;50.198;19.576;2022-12-28T16:41:50;101856.52;;;7.97;44.68
54588;BME280;40484;50.198;19.576;2022-12-28T16:46:52;101849.93;;;8.06;44.24
54588;BME280;40484;50.198;19.576;2022-12-28T16:51:56;101839.02;;;8.17;44.16
54588;BME280;40484;50.198;19.576;2022-12-28T16:56:57;101832.91;;;8.05;44.35
54588;BME280;40484;50.198;19.576;2022-12-28T17:01:59;101838.98;;;7.92;44.62
54588;BME280;40484;50.198;19.576;2022-12-28T17:07:01;101843.15;;;7.84;44.72
54588;BME280;40484;50.198;19.576;2022-12-28T17:12:03;101854.48;;;7.76;44.99
54588;BME280;40484;50.198;19.576;2022-12-28T17:17:05;101840.98;;;7.89;44.85
54588;BME280;40484;50.198;19.576;2022-12-28T17:22:06;101829.36;;;7.88;44.82
54588;BME280;40484;50.198;19.576;2022-12-28T17:27:08;101824.88;;;7.60;45.46
54588;BME280;40484;50.198;19.576;2022-12-28T17:32:10;101828.94;;;7.49;45.65
54588;BME280;40484;50.198;19.576;2022-12-28T17:37:12;101841.03;;;7.53;45.80
54588;BME280;40484;50.198;19.576;2022-12-28T17:42:13;101837.86;;;7.58;45.72
54588;BME280;40484;50.198;19.576;2022-12-28T17:47:15;101843.99;;;7.71;45.44
54588;BME280;40484;50.198;19.576;2022-12-28T17:52:18;101844.45;;;7.57;45.64
54588;BME280;40484;50.198;19.576;2022-12-28T17:57:22;101837.23;;;7.65;45.58
54588;BME280;40484;50.198;19.576;2022-12-28T18:02:23;101837.34;;;7.47;46.01
54588;BME280;40484;50.198;19.576;2022-12-28T18:07:52;101833.35;;;7.59;45.66
54588;BME280;40484;50.198;19.576;2022-12-28T18:12:53;101830.94;;;7.55;45.65
54588;BME280;40484;50.198;19.576;2022-12-28T18:17:55;101832.70;;;7.44;45.80
54588;BME280;40484;50.198;19.576;2022-12-28T18:22:57;101830.45;;;7.37;45.98
54588;BME280;40484;50.198;19.576;2022-12-28T18:27:58;101834.00;;;7.18;46.10
54588;BME280;40484;50.198;19.576;2022-12-28T18:33:01;101831.41;;;7.13;46.41
54588;BME280;40484;50.198;19.576;2022-12-28T18:38:02;101827.44;;;7.48;45.67
54588;BME280;40484;50.198;19.576;2022-12-28T18:43:05;101826.08;;;7.51;45.53
54588;BME280;40484;50.198;19.576;2022-12-28T18:48:06;101831.16;;;7.40;45.64
54588;BME280;40484;50.198;19.576;2022-12-28T18:53:08;101818.00;;;7.51;45.44
54588;BME280;40484;50.198;19.576;2022-12-28T18:58:09;101826.24;;;7.57;45.16
54588;BME280;40484;50.198;19.576;2022-12-28T19:03:11;101821.11;;;7.66;44.98
54588;BME280;40484;50.198;19.576;2022-12-28T19:08:13;101827.66;;;7.49;45.20
54588;BME280;40484;50.198;19.576;2022-12-28T19:13:14;101833.41;;;7.25;45.78
54588;BME280;40484;50.198;19.576;2022-12-28T19:18:16;101821.70;;;7.57;45.02
54588;BME280;40484;50.198;19.576;2022-12-28T19:23:18;101832.30;;;7.23;45.24
54588;BME280;40484;50.198;19.576;2022-12-28T19:28:20;101828.88;;;7.48;44.97
54588;BME280;40484;50.198;19.576;2022-12-28T19:33:22;101820.32;;;7.59;44.59
54588;BME280;40484;50.198;19.576;2022-12-28T19:38:25;101817.88;;;7.53;44.72
54588;BME280;40484;50.198;19.576;2022-12-28T19:43:29;101819.94;;;7.53;44.63
54588;BME280;40484;50.198;19.576;2022-12-28T19:48:31;101807.83;;;7.57;44.64
54588;BME280;40484;50.198;19.576;2022-12-28T19:54:01;101807.41;;;7.65;44.60
54588;BME280;40484;50.198;19.576;2022-12-28T19:59:04;101791.67;;;7.64;44.41
54588;BME280;40484;50.198;19.576;2022-12-28T20:04:06;101795.18;;;7.49;44.53
54588;BME280;40484;50.198;19.576;2022-12-28T20:09:10;101796.55;;;7.46;44.39
54588;BME280;40484;50.198;19.576;2022-12-28T20:14:14;101777.59;;;7.48;44.34
54588;BME280;40484;50.198;19.576;2022-12-28T20:19:17;101778.53;;;7.44;44.31
54588;BME280;40484;50.198;19.576;2022-12-28T20:24:19;101784.16;;;7.39;44.57
54588;BME280;40484;50.198;19.576;2022-12-28T20:29:23;101778.31;;;7.59;44.18
54588;BME280;40484;50.198;19.576;2022-12-28T20:34:25;101779.78;;;7.45;44.50
54588;BME280;40484;50.198;19.576;2022-12-28T20:39:28;101779.55;;;7.44;44.48
54588;BME280;40484;50.198;19.576;2022-12-28T20:44:31;101770.02;;;7.44;44.31
54588;BME280;40484;50.198;19.576;2022-12-28T20:49:35;101767.50;;;7.20;44.62
54588;BME280;40484;50.198;19.576;2022-12-28T20:54:38;101772.31;;;7.08;44.71
54588;BME280;40484;50.198;19.576;2022-12-28T20:59:40;101760.12;;;7.45;44.08
54588;BME280;40484;50.198;19.576;2022-12-28T21:04:42;101757.38;;;7.20;44.31
54588;BME280;40484;50.198;19.576;2022-12-28T21:09:44;101744.97;;;7.35;44.02
54588;BME280;40484;50.198;19.576;2022-12-28T21:14:49;101742.44;;;7.56;43.55
54588;BME280;40484;50.198;19.576;2022-12-28T21:20:18;101741.34;;;7.38;43.55
54588;BME280;40484;50.198;19.576;2022-12-28T21:25:21;101743.41;;;7.16;43.49
54588;BME280;40484;50.198;19.576;2022-12-28T21:30:23;101732.60;;;7.15;43.17
54588;BME280;40484;50.198;19.576;2022-12-28T21:35:26;101722.05;;;7.28;42.88
54588;BME280;40484;50.198;19.576;2022-12-28T21:40:29;101728.20;;;7.05;43.13
54588;BME280;40484;50.198;19.576;2022-12-28T21:45:31;101718.38;;;7.02;43.02
54588;BME280;40484;50.198;19.576;2022-12-28T21:50:33;101714.30;;;7.25;42.70
54588;BME280;40484;50.198;19.576;2022-12-28T21:55:35;101696.35;;;7.27;42.48
54588;BME280;40484;50.198;19.576;2022-12-28T22:00:42;101702.35;;;7.34;42.20
54588;BME280;40484;50.198;19.576;2022-12-28T22:06:22;101692.98;;;7.33;42.06
54588;BME280;40484;50.198;19.576;2022-12-28T22:11:23;101685.43;;;7.12;42.59
54588;BME280;40484;50.198;19.576;2022-12-28T22:17:28;101682.22;;;7.32;42.35
54588;BME280;40484;50.198;19.576;2022-12-28T22:22:29;101674.23;;;7.50;41.85
54588;BME280;40484;50.198;19.576;2022-12-28T22:27:31;101677.25;;;7.40;41.82
54588;BME280;40484;50.198;19.576;2022-12-28T22:32:33;101677.45;;;7.31;42.22
54588;BME280;40484;50.198;19.576;2022-12-28T22:37:35;101681.20;;;7.32;42.12
54588;BME280;40484;50.198;19.576;2022-12-28T22:42:44;101682.77;;;7.45;41.88
54588;BME280;40484;50.198;19.576;2022-12-28T22:47:46;101677.44;;;7.63;41.51
54588;BME280;40484;50.198;19.576;2022-12-28T22:52:48;101687.48;;;7.51;41.60
54588;BME280;40484;50.198;19.576;2022-12-28T22:57:50;101681.20;;;7.32;41.85
54588;BME280;40484;50.198;19.576;2022-12-28T23:02:51;101681.19;;;7.48;41.63
54588;BME280;40484;50.198;19.576;2022-12-28T23:07:53;101685.14;;;7.49;41.45
54588;BME280;40484;50.198;19.576;2022-12-28T23:12:54;101683.05;;;7.48;41.34
54588;BME280;40484;50.198;19.576;2022-12-28T23:17:56;101682.88;;;7.57;41.27
54588;BME280;40484;50.198;19.576;2022-12-28T23:23:02;101680.89;;;7.37;41.46
54588;BME280;40484;50.198;19.576;2022-12-28T23:29:06;101679.30;;;7.55;41.46
54588;BME280;40484;50.198;19.576;2022-12-28T23:34:08;101676.70;;;7.66;41.05
54588;BME280;40484;50.198;19.576;2022-12-28T23:39:09;101668.64;;;7.75;40.88
54588;BME280;40484;50.198;19.576;2022-12-28T23:44:11;101657.02;;;7.66;40.96
54588;BME280;40484;50.198;19.576;2022-12-28T23:49:13;101670.45;;;7.82;40.66
54588;BME280;40484;50.198;19.576;2022-12-28T23:54:16;101670.45;;;7.74;40.73
54588;BME280;40484;50.198;19.576;2022-12-28T23:59:18;101666.95;;;7.82;40.69
